createdAt,value
2022-08-09T00:00:32.658Z,1.05
2022-08-09T00:03:10.907Z,0.95
2022-08-09T00:06:19.075Z,1.33
2022-08-09T00:08:48.479Z,1.40
2022-08-09T00:11:24.317Z,1.33
2022-08-09T00:13:52.670Z,1.20
2022-08-09T00:16:26.553Z,1.45
2022-08-09T00:19:14.749Z,1.20
2022-08-09T00:22:14.524Z,1.30
2022-08-09T00:25:12.813Z,1.35
2022-08-09T00:27:52.841Z,1.67
2022-08-09T00:30:25.465Z,1.20
2022-08-09T00:33:07.858Z,1.55
2022-08-09T00:35:43.066Z,1.55
2022-08-09T00:38:13.825Z,1.65
2022-08-09T00:40:52.990Z,1.65
2022-08-09T00:44:13.490Z,1.48
2022-08-09T00:46:56.401Z,1.40
2022-08-09T00:49:20.534Z,1.23
2022-08-09T00:51:55.900Z,1.33
2022-08-09T00:54:31.591Z,1.65
2022-08-09T00:57:08.747Z,1.70
2022-08-09T00:59:41.667Z,1.35
2022-08-09T01:02:23.195Z,1.70
2022-08-09T01:05:13.746Z,2.10
2022-08-09T01:08:04.443Z,1.58
2022-08-09T01:10:36.907Z,1.60
2022-08-09T01:13:31.184Z,1.70
2022-08-09T01:16:12.845Z,2.03
2022-08-09T01:18:47.577Z,1.80
2022-08-09T01:21:41.165Z,1.27
2022-08-09T01:24:53.965Z,1.70
2022-08-09T01:27:24.777Z,2.00
2022-08-09T01:30:02.178Z,1.58
2022-08-09T01:32:46.081Z,1.98
2022-08-09T01:35:37.762Z,2.25
2022-08-09T01:38:15.866Z,1.42
2022-08-09T01:41:03.080Z,2.35
2022-08-09T01:43:51.718Z,1.75
2022-08-09T01:46:26.519Z,2.45
2022-08-09T01:49:10.438Z,1.83
2022-08-09T01:51:44.393Z,2.08
2022-08-09T01:54:25.835Z,1.83
2022-08-09T01:57:03.992Z,2.30
2022-08-09T01:59:40.921Z,2.22
2022-08-09T02:02:24.023Z,2.50
2022-08-09T02:05:37.862Z,2.42
2022-08-09T02:08:59.073Z,2.42
2022-08-09T02:11:56.143Z,1.88
2022-08-09T02:15:25.752Z,2.30
2022-08-09T02:18:10.473Z,1.98
2022-08-09T02:20:47.065Z,2.55
2022-08-09T02:23:43.026Z,2.10
2022-08-09T02:26:24.982Z,2.22
2022-08-09T02:29:00.373Z,2.13
2022-08-09T02:31:36.402Z,1.90
2022-08-09T02:34:41.014Z,1.92
2022-08-09T02:37:15.070Z,2.17
2022-08-09T02:39:55.385Z,2.22
2022-08-09T02:42:35.682Z,2.15
2022-08-09T02:45:30.559Z,2.20
2022-08-09T02:48:12.231Z,2.42
2022-08-09T02:51:10.863Z,2.25
2022-08-09T02:53:59.697Z,2.67
2022-08-09T02:56:34.912Z,3.17
2022-08-09T02:59:07.917Z,2.50
2022-08-09T03:01:42.643Z,2.13
2022-08-09T03:04:29.579Z,2.40
2022-08-09T03:06:59.856Z,2.15
2022-08-09T03:09:42.867Z,2.45
2022-08-09T03:12:13.551Z,2.45
2022-08-09T03:14:42.304Z,2.70
2022-08-09T03:17:16.491Z,2.70
2022-08-09T03:19:58.002Z,2.22
2022-08-09T03:22:30.882Z,2.70
2022-08-09T03:25:25.882Z,2.88
2022-08-09T03:27:51.285Z,3.17
2022-08-09T03:30:30.108Z,2.05
2022-08-09T03:33:17.534Z,2.63
2022-08-09T03:36:12.847Z,2.30
2022-08-09T03:38:43.122Z,2.58
2022-08-09T03:41:16.706Z,2.40
2022-08-09T03:44:03.078Z,2.80
2022-08-09T03:46:36.064Z,2.72
2022-08-09T03:49:08.929Z,2.95
2022-08-09T03:51:43.906Z,3.30
2022-08-09T03:54:32.767Z,3.05
2022-08-09T03:57:18.495Z,3.00
2022-08-09T03:59:54.228Z,2.50
2022-08-09T04:02:27.863Z,2.55
2022-08-09T04:05:01.382Z,2.70
2022-08-09T04:07:53.556Z,2.53
2022-08-09T04:10:28.715Z,3.05
2022-08-09T04:12:58.055Z,3.20
2022-08-09T04:16:18.318Z,2.90
2022-08-09T04:18:21.139Z,2.80
2022-08-09T04:20:51.315Z,3.05
2022-08-09T04:23:24.483Z,2.58
2022-08-09T04:28:34.217Z,3.28
2022-08-09T04:31:09.782Z,2.50
2022-08-09T04:33:52.591Z,2.67
2022-08-09T04:36:27.332Z,2.92
2022-08-09T04:38:55.960Z,2.67
2022-08-09T04:41:24.430Z,3.20
2022-08-09T04:44:05.962Z,3.22
2022-08-09T04:46:56.696Z,3.78
2022-08-09T04:49:40.616Z,2.92
2022-08-09T04:52:12.052Z,2.78
2022-08-09T04:57:14.014Z,2.13
2022-08-09T05:00:31.911Z,2.88
2022-08-09T05:02:30.207Z,3.20
2022-08-09T05:04:57.617Z,3.20
2022-08-09T05:07:32.325Z,3.28
2022-08-09T05:10:01.595Z,3.70
2022-08-09T05:12:33.120Z,3.53
2022-08-09T05:15:00.637Z,3.13
2022-08-09T05:18:38.121Z,2.92
2022-08-09T05:20:17.660Z,3.80
2022-08-09T05:24:00.166Z,3.33
2022-08-09T05:25:32.332Z,2.88
2022-08-09T05:27:59.618Z,3.10
2022-08-09T05:30:30.051Z,3.75
2022-08-09T05:32:58.442Z,3.50
2022-08-09T05:35:26.050Z,3.67
2022-08-09T05:37:57.020Z,3.38
2022-08-09T05:40:26.848Z,3.28
2022-08-09T05:42:53.962Z,3.35
2022-08-09T05:45:21.367Z,2.55
2022-08-09T05:47:56.796Z,3.38
2022-08-09T05:50:50.454Z,3.42
2022-08-09T05:53:31.591Z,2.92
2022-08-09T05:55:59.513Z,3.70
2022-08-09T05:58:28.583Z,2.97
2022-08-09T06:00:55.478Z,3.15
2022-08-09T06:03:22.404Z,2.85
2022-08-09T06:05:54.782Z,3.03
2022-08-09T06:08:31.834Z,2.33
2022-08-09T06:10:59.237Z,3.20
2022-08-09T06:13:28.566Z,2.95
2022-08-09T06:16:04.673Z,2.95
2022-08-09T06:18:32.677Z,2.97
2022-08-09T06:21:00.919Z,3.42
2022-08-09T06:23:55.541Z,2.50
2022-08-09T06:26:20.570Z,2.72
2022-08-09T06:28:59.500Z,2.80
2022-08-09T06:31:30.792Z,2.65
2022-08-09T06:33:58.732Z,3.60
2022-08-09T06:36:27.319Z,2.78
2022-08-09T06:38:57.450Z,2.67
2022-08-09T06:42:06.375Z,2.80
2022-08-09T06:44:18.090Z,3.35
2022-08-09T06:46:45.594Z,3.30
2022-08-09T06:49:12.738Z,2.55
2022-08-09T06:51:43.021Z,3.33
2022-08-09T06:54:14.677Z,3.05
2022-08-09T06:56:46.205Z,3.08
2022-08-09T07:00:51.002Z,2.58
2022-08-09T07:02:04.566Z,3.60
2022-08-09T07:04:32.461Z,2.63
2022-08-09T07:07:00.493Z,2.55
2022-08-09T07:09:57.344Z,2.45
2022-08-09T07:12:18.282Z,2.95
2022-08-09T07:14:50.894Z,2.78
2022-08-09T07:17:21.516Z,2.22
2022-08-09T07:19:50.585Z,2.58
2022-08-09T07:22:18.180Z,2.50
2022-08-09T07:24:49.375Z,2.13
2022-08-09T07:27:26.717Z,2.22
2022-08-09T07:30:01.671Z,2.38
2022-08-09T07:32:33.046Z,2.10
2022-08-09T07:35:11.543Z,2.20
2022-08-09T07:37:45.598Z,2.25
2022-08-09T07:40:18.910Z,2.20
2022-08-09T07:42:54.390Z,2.10
2022-08-09T07:45:38.325Z,1.95
2022-08-09T07:48:08.121Z,2.10
2022-08-09T07:50:53.012Z,1.95
2022-08-09T07:53:45.119Z,2.13
2022-08-09T07:56:26.800Z,1.40
2022-08-09T07:58:55.350Z,1.80
2022-08-09T08:01:33.869Z,1.50
2022-08-09T08:04:02.453Z,1.50
2022-08-09T08:06:31.584Z,2.50
2022-08-09T08:09:03.397Z,1.48
2022-08-09T08:12:10.260Z,1.87
2022-08-09T08:14:21.048Z,2.03
2022-08-09T08:17:01.033Z,1.77
2022-08-09T08:19:34.953Z,1.75
2022-08-09T08:22:02.398Z,1.65
2022-08-09T08:24:38.194Z,1.70
2022-08-09T08:27:16.703Z,1.20
2022-08-09T08:29:49.884Z,1.00
2022-08-09T08:32:24.173Z,1.25
2022-08-09T08:34:58.996Z,1.65
2022-08-09T08:37:41.898Z,1.25
2022-08-09T08:40:16.446Z,1.48
2022-08-09T08:42:47.284Z,1.20
2022-08-09T08:45:16.496Z,1.60
2022-08-09T08:47:45.510Z,1.20
2022-08-09T08:50:18.316Z,1.65
2022-08-09T08:52:59.658Z,1.10
2022-08-09T08:55:27.972Z,1.05
2022-08-09T08:57:58.546Z,1.23
2022-08-09T09:00:34.216Z,0.80
2022-08-09T09:03:08.824Z,1.20
2022-08-09T09:06:00.417Z,1.00
2022-08-09T09:08:41.109Z,0.85
2022-08-09T09:11:13.765Z,1.40
2022-08-09T09:13:56.418Z,0.98
2022-08-09T09:16:29.862Z,0.68
2022-08-09T09:19:22.777Z,0.60
2022-08-09T09:22:16.354Z,1.60
2022-08-09T09:24:45.382Z,0.70
2022-08-09T09:28:05.905Z,1.17
2022-08-09T09:30:26.230Z,0.80
2022-08-09T09:33:02.935Z,0.50
2022-08-09T09:36:11.906Z,0.80
2022-08-09T09:38:53.070Z,0.90
2022-08-09T09:41:23.122Z,0.80
2022-08-09T09:44:12.185Z,0.90
2022-08-09T09:46:42.096Z,0.70
2022-08-09T09:49:12.062Z,0.70
2022-08-09T09:51:42.135Z,1.13
2022-08-09T09:54:19.268Z,0.70
2022-08-09T09:58:00.639Z,0.82
2022-08-09T09:59:36.856Z,1.10
2022-08-09T10:02:03.709Z,1.30
2022-08-09T10:04:31.447Z,0.73
2022-08-09T10:06:58.452Z,1.00
2022-08-09T10:09:48.958Z,0.90
2022-08-09T10:12:43.702Z,1.33
2022-08-09T10:15:50.630Z,0.90
2022-08-09T10:18:11.077Z,0.80
2022-08-09T10:20:45.195Z,1.20
2022-08-09T10:23:20.340Z,1.05
2022-08-09T10:26:04.331Z,1.77
2022-08-09T10:28:36.705Z,1.20
2022-08-09T10:34:08.828Z,1.15
2022-08-09T10:36:39.722Z,1.20
2022-08-09T10:39:16.069Z,1.25
2022-08-09T10:41:47.621Z,1.20
2022-08-09T10:44:19.258Z,1.08
2022-08-09T10:47:00.942Z,0.80
2022-08-09T10:50:14.844Z,0.90
2022-08-09T10:53:10.392Z,1.10
2022-08-09T10:55:57.962Z,1.00
2022-08-09T10:58:34.731Z,0.88
2022-08-09T11:03:02.610Z,0.80
2022-08-09T11:04:30.076Z,1.10
2022-08-09T11:07:00.240Z,0.93
2022-08-09T11:09:48.186Z,0.98
2022-08-09T11:12:20.181Z,1.23
2022-08-09T11:15:24.283Z,0.88
2022-08-09T11:18:02.823Z,0.98
2022-08-09T11:20:44.331Z,1.05
2022-08-09T11:23:13.530Z,0.95
2022-08-09T11:25:47.091Z,0.80
2022-08-09T11:28:38.495Z,0.70
2022-08-09T11:31:49.275Z,0.93
2022-08-09T11:34:23.285Z,0.70
2022-08-09T11:36:52.681Z,0.57
2022-08-09T11:39:19.620Z,0.95
2022-08-09T11:41:47.017Z,0.90
2022-08-09T11:44:15.759Z,0.60
2022-08-09T11:46:57.171Z,0.68
2022-08-09T11:50:56.199Z,0.60
2022-08-09T11:53:16.657Z,0.60
2022-08-09T11:55:53.484Z,0.63
2022-08-09T11:58:33.119Z,0.77
2022-08-09T12:01:08.603Z,1.00
2022-08-09T12:03:57.499Z,0.70
2022-08-09T12:06:32.490Z,0.63
2022-08-09T12:09:15.199Z,0.70
2022-08-09T12:12:02.957Z,0.60
2022-08-09T12:14:40.474Z,1.20
2022-08-09T12:17:27.600Z,0.60
2022-08-09T12:20:16.707Z,0.73
2022-08-09T12:22:51.978Z,0.60
2022-08-09T12:29:13.275Z,1.27
2022-08-09T12:31:58.292Z,0.88
2022-08-09T12:34:13.899Z,0.60
2022-08-09T12:36:52.022Z,0.82
2022-08-09T12:39:26.829Z,0.43
2022-08-09T12:41:54.450Z,0.50
2022-08-09T12:44:24.351Z,0.35
2022-08-09T12:46:51.724Z,0.52
2022-08-09T12:49:20.901Z,0.57
2022-08-09T12:52:01.605Z,0.68
2022-08-09T12:56:02.393Z,0.50
2022-08-09T12:57:46.474Z,0.60
2022-08-09T13:00:25.134Z,0.50
2022-08-09T13:02:58.393Z,0.70
2022-08-09T13:05:27.357Z,0.80
2022-08-09T13:08:21.312Z,0.50
2022-08-09T13:11:23.384Z,0.90
2022-08-09T13:14:42.609Z,0.50
2022-08-09T13:16:51.739Z,0.60
2022-08-09T13:20:07.632Z,0.47
2022-08-09T13:23:00.041Z,0.70
2022-08-09T13:25:14.213Z,0.60
2022-08-09T13:27:55.356Z,0.50
2022-08-09T13:31:11.072Z,0.50
2022-08-09T13:33:21.290Z,1.10
2022-08-09T13:36:38.819Z,0.63
2022-08-09T13:38:56.545Z,0.40
2022-08-09T13:41:57.506Z,0.47
2022-08-09T13:44:13.774Z,0.50
2022-08-09T13:47:26.715Z,0.65
2022-08-09T13:49:37.923Z,0.60
2022-08-09T13:52:09.338Z,0.73
2022-08-09T13:54:41.901Z,0.43
2022-08-09T13:57:37.060Z,0.82
2022-08-09T14:00:29.314Z,0.60
2022-08-09T14:03:04.498Z,0.50
2022-08-09T14:06:00.618Z,0.60
2022-08-09T14:08:31.614Z,0.68
2022-08-09T14:10:59.600Z,0.57
2022-08-09T14:14:22.970Z,0.40
2022-08-09T14:16:17.754Z,0.77
2022-08-09T14:18:50.208Z,0.40
2022-08-09T14:21:20.916Z,0.90
2022-08-09T14:23:55.175Z,0.43
2022-08-09T14:26:31.710Z,0.38
2022-08-09T14:29:08.112Z,0.90
2022-08-09T14:31:54.757Z,0.50
2022-08-09T14:34:31.281Z,0.40
2022-08-09T14:37:01.883Z,0.60
2022-08-09T14:39:45.743Z,0.52
2022-08-09T14:42:30.232Z,0.50
2022-08-09T14:46:55.117Z,0.52
2022-08-09T14:50:32.446Z,0.68
2022-08-09T14:53:06.353Z,0.63
2022-08-09T14:55:42.307Z,0.60
2022-08-09T14:58:16.602Z,0.43
2022-08-09T15:00:48.191Z,0.80
2022-08-09T15:03:20.413Z,0.35
2022-08-09T15:05:50.193Z,0.40
2022-08-09T15:08:20.747Z,0.30
2022-08-09T15:11:01.036Z,0.50
2022-08-09T15:13:28.426Z,0.70
2022-08-09T15:16:14.845Z,0.30
2022-08-09T15:18:41.901Z,0.30
2022-08-09T15:22:00.438Z,0.60
2022-08-09T15:24:09.238Z,0.70
2022-08-09T15:26:45.295Z,0.30
2022-08-09T15:30:55.431Z,0.30
2022-08-09T15:32:00.626Z,0.60
2022-08-09T15:34:34.663Z,0.50
2022-08-09T15:37:23.728Z,0.30
2022-08-09T15:39:54.842Z,0.30
2022-08-09T15:42:23.113Z,0.40
2022-08-09T15:44:51.106Z,0.50
2022-08-09T15:47:21.781Z,0.40
2022-08-09T15:50:03.616Z,0.35
2022-08-09T15:52:37.924Z,0.50
2022-08-09T15:55:06.343Z,0.30
2022-08-09T15:57:34.137Z,0.57
2022-08-09T16:00:10.999Z,0.70
2022-08-09T16:02:48.198Z,0.30
2022-08-09T16:05:23.743Z,1.48
2022-08-09T16:07:51.199Z,0.70
2022-08-09T16:10:55.092Z,0.60
2022-08-09T16:13:20.793Z,0.47
2022-08-09T16:16:09.916Z,0.40
2022-08-09T16:18:44.663Z,0.38
2022-08-09T16:21:17.331Z,0.70
2022-08-09T16:23:58.756Z,0.80
2022-08-09T16:26:33.677Z,0.68
2022-08-09T16:29:01.587Z,0.63
2022-08-09T16:31:38.035Z,0.50
2022-08-09T16:34:24.066Z,0.60
2022-08-09T16:36:51.099Z,0.80
2022-08-09T16:39:18.056Z,0.60
2022-08-09T16:42:02.931Z,0.77
2022-08-09T16:44:32.333Z,0.60
2022-08-09T16:47:03.768Z,0.60
2022-08-09T16:50:30.302Z,0.70
2022-08-09T16:52:34.726Z,0.60
2022-08-09T16:55:02.544Z,0.50
2022-08-09T16:58:09.169Z,0.82
2022-08-09T17:00:17.081Z,0.60
2022-08-09T17:02:46.191Z,1.35
2022-08-09T17:05:14.434Z,0.40
2022-08-09T17:08:45.245Z,0.65
2022-08-09T17:10:34.176Z,0.60
2022-08-09T17:13:03.321Z,0.65
2022-08-09T17:15:59.338Z,0.40
2022-08-09T17:18:26.736Z,0.85
2022-08-09T17:20:57.899Z,0.80
2022-08-09T17:24:20.754Z,0.60
2022-08-09T17:26:12.412Z,0.82
2022-08-09T17:28:40.354Z,0.73
2022-08-09T17:31:08.264Z,1.23
2022-08-09T17:33:36.025Z,4.45
2022-08-09T17:36:05.437Z,1.10
2022-08-09T17:38:39.379Z,4.20
2022-08-09T17:41:08.043Z,1.77
2022-08-09T17:43:37.505Z,3.30
2022-08-09T17:46:08.744Z,0.50
2022-08-09T17:48:51.963Z,0.40
2022-08-09T17:51:21.887Z,0.98
2022-08-09T17:53:54.811Z,0.65
2022-08-09T17:56:27.386Z,0.70
2022-08-09T17:58:59.357Z,1.48
2022-08-09T18:02:03.702Z,0.63
2022-08-09T18:04:24.923Z,0.82
2022-08-09T18:06:55.109Z,0.98
2022-08-09T18:09:40.465Z,1.17
2022-08-09T18:12:15.014Z,0.95
2022-08-09T18:14:50.137Z,0.70
2022-08-09T18:17:27.725Z,1.00
2022-08-09T18:21:00.343Z,0.50
2022-08-09T18:23:05.194Z,0.57
2022-08-09T18:25:50.679Z,0.38
2022-08-09T18:30:42.990Z,0.60
2022-08-09T18:31:13.819Z,1.40
2022-08-09T18:33:40.815Z,0.85
2022-08-09T18:36:25.354Z,0.50
2022-08-09T18:38:57.379Z,1.10
2022-08-09T18:41:29.010Z,0.70
2022-08-09T18:44:03.365Z,0.60
2022-08-09T18:46:47.374Z,0.60
2022-08-09T18:49:18.105Z,0.60
2022-08-09T18:51:55.361Z,0.60
2022-08-09T18:54:29.600Z,0.50
2022-08-09T18:57:05.973Z,0.77
2022-08-09T18:59:37.507Z,0.70
2022-08-09T19:02:16.665Z,0.77
2022-08-09T19:04:47.763Z,0.60
2022-08-09T19:07:31.404Z,0.60
2022-08-09T19:10:16.759Z,0.50
2022-08-09T19:12:53.968Z,1.17
2022-08-09T19:17:58.975Z,0.68
2022-08-09T19:20:26.405Z,0.80
2022-08-09T19:23:01.448Z,0.70
2022-08-09T19:26:00.902Z,0.90
2022-08-09T19:28:16.609Z,0.90
2022-08-09T19:30:44.947Z,0.68
2022-08-09T19:33:19.002Z,1.42
2022-08-09T19:35:56.940Z,0.73
2022-08-09T19:38:27.350Z,0.80
2022-08-09T19:40:55.385Z,0.82
2022-08-09T19:44:01.219Z,1.00
2022-08-09T19:46:14.970Z,1.23
2022-08-09T19:49:00.775Z,0.70
2022-08-09T19:51:30.842Z,0.75
2022-08-09T19:53:59.672Z,1.10
2022-08-09T19:56:29.462Z,0.60
2022-08-09T19:59:39.311Z,0.77
2022-08-09T20:02:07.462Z,0.77
2022-08-09T20:04:47.607Z,1.00
2022-08-09T20:07:22.597Z,0.90
2022-08-09T20:09:50.195Z,0.70
2022-08-09T20:12:30.017Z,0.80
2022-08-09T20:16:31.436Z,0.90
2022-08-09T20:17:58.157Z,0.70
2022-08-09T20:20:27.057Z,0.80
2022-08-09T20:22:56.506Z,0.77
2022-08-09T20:25:24.080Z,1.20
2022-08-09T20:27:53.493Z,1.00
2022-08-09T20:30:23.965Z,0.98
2022-08-09T20:32:52.935Z,1.20
2022-08-09T20:35:21.624Z,1.10
2022-08-09T20:38:22.599Z,1.35
2022-08-09T20:40:36.299Z,1.63
2022-08-09T20:43:18.918Z,0.60
2022-08-09T20:45:59.419Z,1.13
2022-08-09T20:48:39.478Z,0.93
2022-08-09T20:51:07.269Z,0.80
2022-08-09T20:53:48.889Z,0.80
2022-08-09T20:56:20.844Z,0.82
2022-08-09T20:58:58.267Z,1.60
2022-08-09T21:01:35.398Z,1.10
2022-08-09T21:05:52.350Z,0.80
2022-08-09T21:07:11.659Z,0.98
2022-08-09T21:09:56.551Z,0.80
2022-08-09T21:12:32.224Z,1.00
2022-08-09T21:15:23.749Z,1.00
2022-08-09T21:18:23.814Z,0.70
2022-08-09T21:20:54.279Z,0.60
2022-08-09T21:23:22.414Z,1.05
2022-08-09T21:26:03.564Z,1.02
2022-08-09T21:28:36.205Z,1.38
2022-08-09T21:31:16.212Z,1.00
2022-08-09T21:33:50.322Z,1.00
2022-08-09T21:36:23.149Z,1.15
2022-08-09T21:38:57.862Z,1.17
2022-08-09T21:42:05.884Z,0.95
2022-08-09T21:44:33.444Z,0.98
2022-08-09T21:47:07.766Z,0.90
2022-08-09T21:52:16.437Z,0.90
2022-08-09T21:54:56.916Z,0.90
2022-08-09T21:57:39.096Z,1.17
2022-08-09T22:00:32.432Z,0.82
2022-08-09T22:03:04.783Z,0.88
2022-08-09T22:05:36.690Z,0.90
2022-08-09T22:08:06.985Z,0.80
2022-08-09T22:11:49.020Z,0.77
2022-08-09T22:13:34.705Z,0.70
2022-08-09T22:16:07.761Z,0.85
2022-08-09T22:18:37.254Z,1.52
2022-08-09T22:21:09.356Z,1.00
2022-08-09T22:23:59.562Z,0.80
2022-08-09T22:26:35.577Z,1.00
2022-08-09T22:29:09.370Z,0.88
2022-08-09T22:31:44.102Z,1.00
2022-08-09T22:34:17.470Z,1.30
2022-08-09T22:36:48.106Z,0.63
2022-08-09T22:39:38.698Z,1.05
2022-08-09T22:42:21.259Z,1.67
2022-08-09T22:45:00.233Z,0.80
2022-08-09T22:48:16.014Z,0.82
2022-08-09T22:50:26.252Z,1.13
2022-08-09T22:52:57.647Z,0.90
2022-08-09T22:55:39.767Z,0.85
2022-08-09T22:58:30.881Z,0.77
2022-08-09T23:01:05.961Z,1.38
2022-08-09T23:04:03.743Z,0.83
2022-08-09T23:06:34.853Z,1.17
2022-08-09T23:09:06.596Z,1.10
2022-08-09T23:11:33.796Z,0.90
2022-08-09T23:14:02.855Z,0.95
2022-08-09T23:16:29.927Z,0.80
2022-08-09T23:18:56.924Z,1.00
2022-08-09T23:21:27.663Z,0.95
2022-08-09T23:24:05.925Z,1.05
2022-08-09T23:26:37.862Z,1.00
2022-08-09T23:29:05.990Z,1.05
2022-08-09T23:31:33.317Z,0.85
2022-08-09T23:34:00.505Z,1.13
2022-08-09T23:36:27.591Z,0.98
2022-08-09T23:38:54.405Z,1.10
2022-08-09T23:41:29.017Z,1.17
2022-08-09T23:43:58.522Z,0.93
2022-08-09T23:46:25.401Z,0.90
2022-08-09T23:48:52.240Z,1.35
2022-08-09T23:51:19.138Z,1.35
2022-08-09T23:53:45.909Z,0.98
2022-08-09T23:56:16.590Z,0.98
2022-08-09T23:58:49.017Z,0.80
